Time;durP1;ratioP1;P1;durP2;ratioP2;P2;SDS_P1;SDS_P2;PMS_P1;PMS_P2;Temp;Humidity;BMP_temperature;BMP_pressure;BME280_temperature;BME280_humidity;BME280_pressure;Samples;Min_cycle;Max_cycle;Signal;HPM_P1;HPM_P2
2020/12/09 00:00:12;;;;;;;8.98;3.95;;;;;;;;;;4805797;29;20088;-81
2020/12/09 00:02:41;;;;;;;8.63;3.92;;;;;;;;;;4805788;29;20026;-81
2020/12/09 00:05:08;;;;;;;8.82;3.72;;;;;;;;;;4805486;29;20069;-82
2020/12/09 00:07:35;;;;;;;11.85;4.57;;;;;;;;;;4805643;29;20035;-82
2020/12/09 00:10:01;;;;;;;7.75;4.10;;;;;;;;;;4805622;29;20382;-79
2020/12/09 00:12:30;;;;;;;7.22;3.63;;;;;;;;;;4805301;29;20030;-81
2020/12/09 00:14:57;;;;;;;7.20;3.13;;;;;;;;;;4805556;29;20023;-80
2020/12/09 00:17:23;;;;;;;8.73;4.00;;;;;;;;;;4805384;29;20084;-76
2020/12/09 00:19:49;;;;;;;8.18;3.65;;;;;;;;;;4805480;29;20037;-76
2020/12/09 00:22:15;;;;;;;8.73;4.30;;;;;;;;;;4805386;29;20031;-77
2020/12/09 00:24:41;;;;;;;9.45;3.95;;;;;;;;;;4805191;29;20134;-80
2020/12/09 00:27:08;;;;;;;6.30;3.13;;;;;;;;;;4805240;29;20031;-80
2020/12/09 00:29:34;;;;;;;11.48;3.80;;;;;;;;;;4805322;29;20034;-79
2020/12/09 00:32:00;;;;;;;6.82;3.05;;;;;;;;;;4805263;29;20392;-79
2020/12/09 00:34:26;;;;;;;5.72;3.10;;;;;;;;;;4805270;29;20042;-79
2020/12/09 00:36:52;;;;;;;5.32;2.78;;;;;;;;;;4804993;29;20035;-77
2020/12/09 00:39:18;;;;;;;6.65;2.45;;;;;;;;;;4805189;29;20049;-81
2020/12/09 00:41:44;;;;;;;5.13;2.28;;;;;;;;;;4804378;29;20504;-80
2020/12/09 00:44:10;;;;;;;9.25;2.90;;;;;;;;;;4805093;29;20049;-81
2020/12/09 00:46:36;;;;;;;6.60;2.63;;;;;;;;;;4805064;29;20034;-80
2020/12/09 00:49:02;;;;;;;4.93;1.75;;;;;;;;;;4804676;29;20119;-78
2020/12/09 00:51:28;;;;;;;5.95;2.83;;;;;;;;;;4805046;29;20031;-81
2020/12/09 00:53:54;;;;;;;6.25;2.88;;;;;;;;;;4805002;29;20370;-80
2020/12/09 00:56:20;;;;;;;6.22;3.03;;;;;;;;;;4805149;29;20083;-80
2020/12/09 00:58:47;;;;;;;7.63;2.28;;;;;;;;;;4804493;29;20408;-76
2020/12/09 01:01:13;;;;;;;6.72;2.38;;;;;;;;;;4804964;29;20484;-77
2020/12/09 01:03:40;;;;;;;5.45;2.60;;;;;;;;;;4804912;29;20042;-79
2020/12/09 01:06:06;;;;;;;6.97;2.97;;;;;;;;;;4805880;29;20031;-81
2020/12/09 01:08:33;;;;;;;7.25;3.00;;;;;;;;;;4806022;29;20035;-79
2020/12/09 01:10:59;;;;;;;8.60;3.00;;;;;;;;;;4804839;29;20435;-79
2020/12/09 01:13:25;;;;;;;6.72;2.70;;;;;;;;;;4804777;29;20099;-79
2020/12/09 01:15:51;;;;;;;9.93;3.67;;;;;;;;;;4804925;29;20038;-79
2020/12/09 01:18:17;;;;;;;15.80;4.80;;;;;;;;;;4804492;29;20131;-81
2020/12/09 01:20:44;;;;;;;12.43;4.38;;;;;;;;;;4804815;29;20030;-76
2020/12/09 01:23:10;;;;;;;11.02;4.75;;;;;;;;;;4804730;29;20490;-76
2020/12/09 01:25:37;;;;;;;10.18;4.07;;;;;;;;;;4805970;29;20034;-79
2020/12/09 01:28:04;;;;;;;6.72;2.65;;;;;;;;;;4804683;29;20569;-78
2020/12/09 01:30:30;;;;;;;6.53;3.20;;;;;;;;;;4804580;29;20033;-81
2020/12/09 01:32:57;;;;;;;7.43;3.00;;;;;;;;;;4804890;29;20035;-81
2020/12/09 01:35:23;;;;;;;7.05;2.80;;;;;;;;;;4804591;29;20458;-80
2020/12/09 01:37:49;;;;;;;8.07;3.00;;;;;;;;;;4804575;29;20047;-81
2020/12/09 01:40:16;;;;;;;6.07;2.97;;;;;;;;;;4804648;29;20035;-81
2020/12/09 01:42:42;;;;;;;6.03;2.90;;;;;;;;;;4804575;29;20057;-79
2020/12/09 01:45:08;;;;;;;7.22;3.45;;;;;;;;;;4805887;29;20095;-82
2020/12/09 01:47:35;;;;;;;8.98;3.42;;;;;;;;;;4804202;29;20520;-80
2020/12/09 01:50:01;;;;;;;6.03;3.20;;;;;;;;;;4805962;29;20477;-81
2020/12/09 01:52:27;;;;;;;6.75;3.58;;;;;;;;;;4805256;29;20103;-80
2020/12/09 01:54:55;;;;;;;6.43;2.60;;;;;;;;;;4807913;29;20038;-81
2020/12/09 01:57:21;;;;;;;8.18;3.33;;;;;;;;;;4807994;29;20050;-80
2020/12/09 01:59:47;;;;;;;7.10;3.08;;;;;;;;;;4807982;29;20508;-80
2020/12/09 02:02:14;;;;;;;6.20;2.72;;;;;;;;;;4809351;29;20035;-77
2020/12/09 02:04:41;;;;;;;8.68;2.85;;;;;;;;;;4809081;29;20105;-81
2020/12/09 02:07:07;;;;;;;7.10;3.28;;;;;;;;;;4807832;29;20109;-80
2020/12/09 02:09:34;;;;;;;7.43;3.45;;;;;;;;;;4809137;29;20027;-79
2020/12/09 02:12:00;;;;;;;9.27;3.28;;;;;;;;;;4807760;29;20121;-82
2020/12/09 02:14:27;;;;;;;10.13;3.28;;;;;;;;;;4807782;29;20143;-81
2020/12/09 02:16:58;;;;;;;7.38;3.22;;;;;;;;;;4808640;29;20039;-81
2020/12/09 02:19:24;;;;;;;7.47;3.50;;;;;;;;;;4807657;29;20038;-80
2020/12/09 02:21:51;;;;;;;6.65;3.00;;;;;;;;;;4807485;29;20086;-77
2020/12/09 02:24:17;;;;;;;7.45;3.15;;;;;;;;;;4807492;29;20031;-78
2020/12/09 02:26:44;;;;;;;10.18;4.07;;;;;;;;;;4807404;29;20030;-77
2020/12/09 02:29:11;;;;;;;7.78;3.25;;;;;;;;;;4808780;29;20388;-77
2020/12/09 02:31:37;;;;;;;9.23;3.67;;;;;;;;;;4808492;29;20066;-80
2020/12/09 02:34:03;;;;;;;7.93;3.55;;;;;;;;;;4807418;29;20035;-76
2020/12/09 02:36:29;;;;;;;5.53;2.83;;;;;;;;;;4807668;29;20071;-82
2020/12/09 02:38:56;;;;;;;7.07;3.47;;;;;;;;;;4807468;29;20042;-81
2020/12/09 02:41:22;;;;;;;6.43;3.17;;;;;;;;;;4807203;29;20043;-82
2020/12/09 02:43:48;;;;;;;7.35;3.60;;;;;;;;;;4807200;29;20034;-81
2020/12/09 02:46:14;;;;;;;9.15;3.90;;;;;;;;;;4807212;29;20084;-81
2020/12/09 02:48:40;;;;;;;6.40;2.85;;;;;;;;;;4822509;29;20057;-81
2020/12/09 02:51:06;;;;;;;10.82;3.28;;;;;;;;;;4810104;29;20041;-80
2020/12/09 02:53:32;;;;;;;6.13;2.78;;;;;;;;;;4809976;29;20031;-80
2020/12/09 02:55:58;;;;;;;9.82;3.55;;;;;;;;;;4810083;29;20399;-80
2020/12/09 02:58:26;;;;;;;7.90;3.05;;;;;;;;;;4809956;29;20095;-79
2020/12/09 03:00:52;;;;;;;6.47;2.85;;;;;;;;;;4810003;29;20070;-81
2020/12/09 03:03:18;;;;;;;5.88;2.85;;;;;;;;;;4809849;29;20424;-81
2020/12/09 03:05:44;;;;;;;6.78;3.10;;;;;;;;;;4825273;29;20030;-77
2020/12/09 03:08:10;;;;;;;5.95;2.97;;;;;;;;;;4826110;29;20042;-80
2020/12/09 03:10:36;;;;;;;6.53;2.90;;;;;;;;;;4826165;29;20030;-81
2020/12/09 03:13:02;;;;;;;5.13;2.58;;;;;;;;;;4809635;29;20110;-79
2020/12/09 03:15:28;;;;;;;6.60;2.85;;;;;;;;;;4826045;29;20038;-80
2020/12/09 03:17:54;;;;;;;9.57;3.33;;;;;;;;;;4825795;29;20038;-76
2020/12/09 03:20:20;;;;;;;6.85;2.90;;;;;;;;;;4809542;29;20023;-78
2020/12/09 03:22:47;;;;;;;5.22;2.60;;;;;;;;;;4826002;29;20038;-80
2020/12/09 03:25:13;;;;;;;9.57;3.17;;;;;;;;;;4809557;29;20030;-77
2020/12/09 03:27:39;;;;;;;6.25;2.67;;;;;;;;;;4825911;29;20034;-76
2020/12/09 03:30:05;;;;;;;9.10;3.47;;;;;;;;;;4809492;29;20496;-80
2020/12/09 03:32:31;;;;;;;7.13;3.05;;;;;;;;;;4809528;29;20091;-81
2020/12/09 03:34:57;;;;;;;5.55;2.50;;;;;;;;;;4809474;29;20035;-77
2020/12/09 03:37:23;;;;;;;6.45;2.75;;;;;;;;;;4825668;29;20035;-77
2020/12/09 03:39:49;;;;;;;6.55;3.30;;;;;;;;;;4809547;29;20035;-76
2020/12/09 03:42:15;;;;;;;4.20;2.33;;;;;;;;;;4825700;29;20065;-79
2020/12/09 03:44:41;;;;;;;6.45;2.75;;;;;;;;;;4809271;29;20499;-80
2020/12/09 03:47:08;;;;;;;6.90;2.92;;;;;;;;;;4809018;29;20051;-80
2020/12/09 03:49:34;;;;;;;5.13;2.05;;;;;;;;;;4809427;29;20045;-77
2020/12/09 03:52:00;;;;;;;7.60;3.22;;;;;;;;;;4825789;29;20393;-81
2020/12/09 03:54:26;;;;;;;8.50;3.10;;;;;;;;;;4825372;29;20026;-81
2020/12/09 03:56:52;;;;;;;6.47;2.50;;;;;;;;;;4808848;29;20123;-81
2020/12/09 03:59:18;;;;;;;6.57;2.80;;;;;;;;;;4809015;29;20129;-80
2020/12/09 04:01:44;;;;;;;6.40;2.83;;;;;;;;;;4808763;29;20026;-77
2020/12/09 04:04:10;;;;;;;5.18;2.10;;;;;;;;;;4808773;29;20027;-81
2020/12/09 04:06:37;;;;;;;7.97;3.33;;;;;;;;;;4808795;29;20499;-80
2020/12/09 04:09:04;;;;;;;5.75;2.50;;;;;;;;;;4825091;29;20484;-77
2020/12/09 04:11:30;;;;;;;4.53;2.17;;;;;;;;;;4808884;29;20035;-81
2020/12/09 04:13:56;;;;;;;5.35;2.67;;;;;;;;;;4808628;29;20117;-78
2020/12/09 04:16:22;;;;;;;6.65;2.78;;;;;;;;;;4808132;29;20072;-78
2020/12/09 04:18:48;;;;;;;5.47;2.47;;;;;;;;;;4825033;29;20038;-80
2020/12/09 04:21:14;;;;;;;6.57;3.00;;;;;;;;;;4808477;29;20118;-81
2020/12/09 04:23:40;;;;;;;6.65;2.95;;;;;;;;;;4825151;29;20042;-80
2020/12/09 04:26:06;;;;;;;8.13;2.35;;;;;;;;;;4808286;29;20504;-80
2020/12/09 04:28:32;;;;;;;7.68;2.33;;;;;;;;;;4808450;29;20045;-77
2020/12/09 04:30:58;;;;;;;6.60;2.63;;;;;;;;;;4808424;29;20121;-81
2020/12/09 04:33:28;;;;;;;5.07;2.15;;;;;;;;;;4808094;29;20042;-79
2020/12/09 04:35:55;;;;;;;7.20;2.35;;;;;;;;;;4808358;29;20384;-81
2020/12/09 04:38:21;;;;;;;4.30;2.22;;;;;;;;;;4824761;29;20481;-80
2020/12/09 04:40:48;;;;;;;5.50;2.45;;;;;;;;;;4808489;29;20126;-80
2020/12/09 04:43:14;;;;;;;5.97;2.67;;;;;;;;;;4808210;29;20042;-77
2020/12/09 04:45:40;;;;;;;6.32;2.53;;;;;;;;;;4807985;29;20041;-80
2020/12/09 04:48:08;;;;;;;5.75;2.58;;;;;;;;;;4805192;29;20058;-76
2020/12/09 04:50:35;;;;;;;5.72;2.50;;;;;;;;;;4805192;29;20031;-76
2020/12/09 04:53:11;;;;;;;5.70;2.47;;;;;;;;;;4806371;29;20092;-76
2020/12/09 04:55:49;;;;;;;4.53;2.58;;;;;;;;;;4805092;29;20081;-77
2020/12/09 04:58:16;;;;;;;7.80;3.13;;;;;;;;;;4804773;29;20129;-80
2020/12/09 05:00:47;;;;;;;8.48;3.00;;;;;;;;;;4804876;29;20034;-78
2020/12/09 05:03:13;;;;;;;5.85;2.75;;;;;;;;;;4804905;29;20046;-77
2020/12/09 05:05:40;;;;;;;4.78;2.55;;;;;;;;;;4806003;29;20027;-80
2020/12/09 05:08:10;;;;;;;4.63;2.13;;;;;;;;;;4804845;29;20035;-81
2020/12/09 05:10:43;;;;;;;6.47;2.28;;;;;;;;;;4806189;29;20022;-80
2020/12/09 05:13:10;;;;;;;5.43;2.17;;;;;;;;;;4804797;29;20481;-80
2020/12/09 05:15:36;;;;;;;5.82;2.55;;;;;;;;;;4804832;29;20063;-80
2020/12/09 05:18:02;;;;;;;5.97;2.95;;;;;;;;;;4804390;29;20046;-78
2020/12/09 05:20:30;;;;;;;8.27;3.15;;;;;;;;;;4804823;29;20541;-76
2020/12/09 05:22:57;;;;;;;7.03;2.75;;;;;;;;;;4804707;29;20187;-76
2020/12/09 05:25:24;;;;;;;7.43;3.30;;;;;;;;;;4805958;29;20034;-77
2020/12/09 05:27:50;;;;;;;4.70;2.22;;;;;;;;;;4805831;29;20512;-76
2020/12/09 05:30:36;;;;;;;8.93;2.85;;;;;;;;;;4808441;29;20452;-77
2020/12/09 05:33:02;;;;;;;6.90;2.58;;;;;;;;;;4808404;29;20042;-76
2020/12/09 05:35:28;;;;;;;7.43;2.95;;;;;;;;;;4809608;29;20027;-77
2020/12/09 05:38:11;;;;;;;7.50;2.38;;;;;;;;;;4807913;29;20042;-75
2020/12/09 05:40:38;;;;;;;5.75;2.40;;;;;;;;;;4808419;29;20064;-77
2020/12/09 05:43:04;;;;;;;7.00;3.38;;;;;;;;;;4808339;29;20438;-78
2020/12/09 05:45:30;;;;;;;6.90;2.72;;;;;;;;;;4808250;29;20118;-78
2020/12/09 05:48:15;;;;;;;8.27;3.55;;;;;;;;;;4818145;29;20415;-77
2020/12/09 05:50:45;;;;;;;7.43;3.15;;;;;;;;;;4810994;29;20035;-77
2020/12/09 05:53:18;;;;;;;7.60;3.40;;;;;;;;;;4827309;29;20396;-78
2020/12/09 05:55:44;;;;;;;11.88;3.15;;;;;;;;;;4811071;29;20048;-77
2020/12/09 05:58:22;;;;;;;7.88;3.00;;;;;;;;;;4827122;29;20048;-77
2020/12/09 06:01:08;;;;;;;7.15;2.80;;;;;;;;;;4810900;29;20500;-84
2020/12/09 06:03:35;;;;;;;7.28;2.70;;;;;;;;;;4810693;29;20030;-80
2020/12/09 06:06:12;;;;;;;6.78;2.53;;;;;;;;;;4810832;29;20496;-81
2020/12/09 06:08:39;;;;;;;6.80;2.85;;;;;;;;;;4810790;29;20050;-83
2020/12/09 06:11:05;;;;;;;10.43;3.20;;;;;;;;;;4827380;29;20037;-80
2020/12/09 06:13:32;;;;;;;6.20;2.33;;;;;;;;;;4810525;29;20030;-84
2020/12/09 06:15:59;;;;;;;6.00;2.83;;;;;;;;;;4827023;29;20167;-82
2020/12/09 06:18:27;;;;;;;7.85;3.30;;;;;;;;;;4810543;29;20054;-78
2020/12/09 06:20:53;;;;;;;9.57;3.28;;;;;;;;;;4810539;29;20440;-77
2020/12/09 06:23:19;;;;;;;10.02;4.82;;;;;;;;;;4826953;29;20038;-77
2020/12/09 06:25:46;;;;;;;11.38;4.38;;;;;;;;;;4810408;29;20114;-76
2020/12/09 06:28:16;;;;;;;12.48;5.05;;;;;;;;;;4810497;29;20133;-77
2020/12/09 06:30:43;;;;;;;9.75;4.63;;;;;;;;;;4826659;29;20429;-76
2020/12/09 06:33:10;;;;;;;8.75;4.22;;;;;;;;;;4810285;29;20382;-77
2020/12/09 06:35:36;;;;;;;9.65;3.58;;;;;;;;;;4826700;29;20030;-79
2020/12/09 06:38:08;;;;;;;12.35;4.13;;;;;;;;;;4810166;29;20057;-76
2020/12/09 06:40:38;;;;;;;9.27;4.07;;;;;;;;;;4809774;29;20034;-77
2020/12/09 06:43:08;;;;;;;11.70;4.90;;;;;;;;;;4810396;29;20038;-76
2020/12/09 06:45:44;;;;;;;11.07;4.70;;;;;;;;;;4810112;29;20129;-76
2020/12/09 06:48:14;;;;;;;9.13;4.32;;;;;;;;;;4806675;29;20145;-79
2020/12/09 06:50:43;;;;;;;7.82;4.22;;;;;;;;;;4807157;29;20388;-80
2020/12/09 06:53:15;;;;;;;12.20;4.95;;;;;;;;;;4807219;29;20484;-79
2020/12/09 06:55:42;;;;;;;10.43;4.10;;;;;;;;;;4807034;29;20031;-79
2020/12/09 06:58:24;;;;;;;7.95;3.58;;;;;;;;;;4806981;29;20468;-78
2020/12/09 07:01:16;;;;;;;7.30;3.13;;;;;;;;;;4808223;29;20078;-78
2020/12/09 07:03:51;;;;;;;5.88;3.10;;;;;;;;;;4804622;29;20571;-77
2020/12/09 07:06:20;;;;;;;7.45;3.70;;;;;;;;;;4806586;29;20031;-78
2020/12/09 07:08:47;;;;;;;6.97;3.05;;;;;;;;;;4806457;29;20023;-77
2020/12/09 07:11:13;;;;;;;7.47;3.42;;;;;;;;;;4806588;29;20042;-76
2020/12/09 07:13:39;;;;;;;8.55;3.38;;;;;;;;;;4806795;29;20061;-78
2020/12/09 07:16:06;;;;;;;6.75;2.90;;;;;;;;;;4806433;29;20031;-77
2020/12/09 07:18:36;;;;;;;5.88;2.70;;;;;;;;;;4806184;29;20079;-77
2020/12/09 07:21:04;;;;;;;7.03;3.35;;;;;;;;;;4806425;29;20035;-77
2020/12/09 07:23:30;;;;;;;6.43;2.90;;;;;;;;;;4806769;29;20038;-77
2020/12/09 07:25:58;;;;;;;6.25;2.78;;;;;;;;;;4806343;29;20023;-78
2020/12/09 07:28:24;;;;;;;9.02;3.03;;;;;;;;;;4806313;29;20038;-77
2020/12/09 07:30:51;;;;;;;6.38;3.33;;;;;;;;;;4806586;29;20042;-78
2020/12/09 07:33:17;;;;;;;7.80;2.67;;;;;;;;;;4805768;29;20031;-77
2020/12/09 07:35:44;;;;;;;11.02;3.45;;;;;;;;;;4806120;29;20035;-76
2020/12/09 07:38:10;;;;;;;12.27;3.28;;;;;;;;;;4807323;29;20039;-77
2020/12/09 07:40:36;;;;;;;8.63;3.00;;;;;;;;;;4805058;29;20031;-78
2020/12/09 07:43:14;;;;;;;8.45;3.50;;;;;;;;;;4807452;29;20070;-76
2020/12/09 07:45:42;;;;;;;7.35;3.40;;;;;;;;;;4806045;29;20030;-77
2020/12/09 07:48:12;;;;;;;9.45;3.35;;;;;;;;;;4828543;29;20132;-80
2020/12/09 07:50:38;;;;;;;9.80;3.80;;;;;;;;;;4826493;29;20066;-76
2020/12/09 07:53:05;;;;;;;9.30;3.88;;;;;;;;;;4827127;29;20041;-76
2020/12/09 07:55:34;;;;;;;10.82;4.65;;;;;;;;;;4843465;29;20030;-76
2020/12/09 07:58:11;;;;;;;10.57;3.95;;;;;;;;;;4826658;29;20491;-76
2020/12/09 08:00:38;;;;;;;12.52;4.57;;;;;;;;;;4812915;29;20453;-76
2020/12/09 08:03:04;;;;;;;6.88;3.33;;;;;;;;;;4808865;29;20034;-76
2020/12/09 08:05:35;;;;;;;5.90;2.35;;;;;;;;;;4824967;29;20087;-75
2020/12/09 08:08:03;;;;;;;7.88;3.42;;;;;;;;;;4808647;29;20121;-78
2020/12/09 08:10:33;;;;;;;7.07;3.05;;;;;;;;;;4808745;29;20031;-77
2020/12/09 08:13:00;;;;;;;8.07;3.70;;;;;;;;;;4808752;29;20034;-76
2020/12/09 08:15:26;;;;;;;6.28;3.00;;;;;;;;;;4808426;29;20031;-77
2020/12/09 08:17:52;;;;;;;7.55;3.30;;;;;;;;;;4808559;29;20046;-77
2020/12/09 08:20:18;;;;;;;5.93;2.83;;;;;;;;;;4824996;29;20062;-77
2020/12/09 08:22:55;;;;;;;6.55;2.83;;;;;;;;;;4808393;29;20035;-77
2020/12/09 08:25:21;;;;;;;7.93;2.58;;;;;;;;;;4825063;29;20027;-77
2020/12/09 08:27:48;;;;;;;6.40;2.58;;;;;;;;;;4808495;29;20036;-77
2020/12/09 08:30:18;;;;;;;8.23;2.97;;;;;;;;;;4808314;29;20030;-76
2020/12/09 08:32:54;;;;;;;10.98;4.03;;;;;;;;;;4808308;29;20046;-76
2020/12/09 08:35:21;;;;;;;10.55;4.55;;;;;;;;;;4808950;29;20026;-77
2020/12/09 08:37:47;;;;;;;96.43;26.70;;;;;;;;;;4826564;29;20042;-75
2020/12/09 08:40:13;;;;;;;12.10;3.75;;;;;;;;;;4826231;29;20042;-75
2020/12/09 08:42:39;;;;;;;11.93;3.60;;;;;;;;;;4826109;29;20026;-76
2020/12/09 08:45:05;;;;;;;9.70;3.30;;;;;;;;;;4826303;29;20034;-75
2020/12/09 08:47:31;;;;;;;9.95;3.85;;;;;;;;;;4826044;29;20038;-74
2020/12/09 08:49:57;;;;;;;8.50;3.50;;;;;;;;;;4825964;29;20038;-75
2020/12/09 08:52:27;;;;;;;128.50;13.32;;;;;;;;;;4826024;29;20033;-74
2020/12/09 08:54:53;;;;;;;24.63;4.70;;;;;;;;;;4842346;29;20033;-74
2020/12/09 08:57:19;;;;;;;10.25;3.85;;;;;;;;;;4825694;29;20495;-74
2020/12/09 08:59:46;;;;;;;7.88;2.95;;;;;;;;;;4826098;29;20034;-76
2020/12/09 09:02:12;;;;;;;7.80;3.95;;;;;;;;;;4825291;29;20118;-75
2020/12/09 09:04:39;;;;;;;10.85;3.92;;;;;;;;;;4842291;29;20034;-74
2020/12/09 09:07:05;;;;;;;10.82;3.35;;;;;;;;;;4825918;29;20171;-76
2020/12/09 09:09:31;;;;;;;9.00;3.25;;;;;;;;;;4826187;29;20483;-76
2020/12/09 09:12:00;;;;;;;8.13;2.92;;;;;;;;;;4842185;29;20436;-75
2020/12/09 09:14:26;;;;;;;5.20;2.22;;;;;;;;;;4842233;29;20564;-74
2020/12/09 09:16:53;;;;;;;6.25;2.53;;;;;;;;;;4825782;29;20038;-75
2020/12/09 09:19:19;;;;;;;4.85;2.08;;;;;;;;;;4825735;29;20041;-75
2020/12/09 09:21:45;;;;;;;5.65;2.60;;;;;;;;;;4826041;29;20030;-74
2020/12/09 09:24:11;;;;;;;5.85;2.17;;;;;;;;;;4825971;29;20069;-75
2020/12/09 09:26:37;;;;;;;7.85;1.73;;;;;;;;;;4825547;29;20034;-75
2020/12/09 09:29:04;;;;;;;6.85;2.78;;;;;;;;;;4825717;29;20026;-76
2020/12/09 09:31:30;;;;;;;7.72;2.65;;;;;;;;;;4810413;29;20420;-75
2020/12/09 09:33:56;;;;;;;7.18;2.80;;;;;;;;;;4825752;29;20038;-76
2020/12/09 09:36:22;;;;;;;6.93;2.65;;;;;;;;;;4817315;29;20720;-75
2020/12/09 09:38:50;;;;;;;4.43;2.45;;;;;;;;;;4807377;29;20538;-76
2020/12/09 09:41:17;;;;;;;6.20;2.70;;;;;;;;;;4807448;29;20396;-74
2020/12/09 09:43:43;;;;;;;4.78;2.42;;;;;;;;;;4823906;29;20035;-76
2020/12/09 09:46:09;;;;;;;9.70;3.38;;;;;;;;;;4807062;29;20035;-74
2020/12/09 09:48:35;;;;;;;6.28;2.58;;;;;;;;;;4806986;29;20572;-75
2020/12/09 09:51:01;;;;;;;5.32;2.30;;;;;;;;;;4807200;29;20378;-74
2020/12/09 09:53:28;;;;;;;5.25;2.55;;;;;;;;;;4823192;29;20032;-74
2020/12/09 09:55:54;;;;;;;5.90;2.33;;;;;;;;;;4807146;29;20179;-74
2020/12/09 09:58:20;;;;;;;7.13;3.00;;;;;;;;;;4807062;29;20045;-75
2020/12/09 10:00:46;;;;;;;7.43;2.83;;;;;;;;;;4823353;29;20031;-76
2020/12/09 10:03:12;;;;;;;5.05;2.15;;;;;;;;;;4806831;29;20030;-75
2020/12/09 10:05:38;;;;;;;6.85;2.65;;;;;;;;;;4823299;29;20421;-75
2020/12/09 10:08:04;;;;;;;6.15;2.50;;;;;;;;;;4822715;29;20035;-75
2020/12/09 10:10:30;;;;;;;13.43;2.72;;;;;;;;;;4806948;29;20393;-74
2020/12/09 10:12:56;;;;;;;7.50;2.50;;;;;;;;;;4807013;29;20087;-76
2020/12/09 10:15:23;;;;;;;5.22;2.03;;;;;;;;;;4826434;29;20041;-75
2020/12/09 10:17:49;;;;;;;6.78;2.92;;;;;;;;;;4809870;29;20049;-76
2020/12/09 10:20:15;;;;;;;5.82;2.30;;;;;;;;;;4809904;29;20391;-76
2020/12/09 10:22:41;;;;;;;5.43;2.50;;;;;;;;;;4809916;29;20030;-74
2020/12/09 10:25:07;;;;;;;5.32;2.40;;;;;;;;;;4810255;29;20077;-79
2020/12/09 10:27:33;;;;;;;6.95;2.63;;;;;;;;;;4810175;29;20126;-79
2020/12/09 10:29:59;;;;;;;5.07;2.40;;;;;;;;;;4810061;29;20030;-77
2020/12/09 10:32:26;;;;;;;8.15;2.72;;;;;;;;;;4826610;29;20037;-80
2020/12/09 10:34:52;;;;;;;8.65;2.38;;;;;;;;;;4810194;29;20031;-77
2020/12/09 10:37:19;;;;;;;11.82;3.78;;;;;;;;;;4809910;29;20038;-76
2020/12/09 10:39:46;;;;;;;9.35;4.00;;;;;;;;;;4809704;29;20031;-75
2020/12/09 10:42:12;;;;;;;11.15;4.82;;;;;;;;;;4809226;29;20034;-76
2020/12/09 10:44:38;;;;;;;10.45;4.55;;;;;;;;;;4809746;29;20175;-76
2020/12/09 10:47:06;;;;;;;11.05;4.25;;;;;;;;;;4825971;29;20026;-74
2020/12/09 10:49:32;;;;;;;7.78;3.17;;;;;;;;;;4809896;29;20056;-77
2020/12/09 10:51:58;;;;;;;10.43;4.32;;;;;;;;;;4810255;29;20033;-76
2020/12/09 10:54:25;;;;;;;7.95;3.53;;;;;;;;;;4809706;29;20042;-76
2020/12/09 10:56:51;;;;;;;10.35;3.00;;;;;;;;;;4809674;29;20034;-77
2020/12/09 10:59:17;;;;;;;5.47;2.60;;;;;;;;;;4809837;29;20042;-77
2020/12/09 11:01:44;;;;;;;6.00;2.70;;;;;;;;;;4809823;29;20065;-76
2020/12/09 11:04:11;;;;;;;4.53;2.30;;;;;;;;;;4809822;29;20042;-77
2020/12/09 11:06:38;;;;;;;6.25;2.33;;;;;;;;;;4809153;29;20027;-78
2020/12/09 11:09:05;;;;;;;8.13;3.35;;;;;;;;;;4809433;29;20041;-77
2020/12/09 11:11:31;;;;;;;8.35;3.05;;;;;;;;;;4809614;29;20496;-76
2020/12/09 11:13:58;;;;;;;6.80;2.67;;;;;;;;;;4809609;29;20034;-76
2020/12/09 11:16:24;;;;;;;10.18;3.95;;;;;;;;;;4809402;29;20038;-76
2020/12/09 11:18:50;;;;;;;8.68;2.47;;;;;;;;;;4809103;29;20073;-77
2020/12/09 11:21:17;;;;;;;9.07;2.88;;;;;;;;;;4809402;29;20082;-75
2020/12/09 11:23:43;;;;;;;8.27;3.10;;;;;;;;;;4809318;29;20031;-75
2020/12/09 11:26:09;;;;;;;5.82;2.70;;;;;;;;;;4808501;29;20027;-76
2020/12/09 11:28:36;;;;;;;9.18;2.60;;;;;;;;;;4825018;29;20030;-75
2020/12/09 11:31:02;;;;;;;6.35;2.55;;;;;;;;;;4809232;29;20400;-76
2020/12/09 11:33:28;;;;;;;9.13;3.20;;;;;;;;;;4809245;29;20030;-77
2020/12/09 11:35:55;;;;;;;7.20;2.22;;;;;;;;;;4813810;29;20117;-75
2020/12/09 11:38:21;;;;;;;11.68;3.25;;;;;;;;;;4843454;29;20034;-76
2020/12/09 11:40:47;;;;;;;10.30;3.20;;;;;;;;;;4826874;29;20065;-76
2020/12/09 11:43:13;;;;;;;17.98;4.28;;;;;;;;;;4843439;29;20037;-75
2020/12/09 11:45:39;;;;;;;11.10;4.50;;;;;;;;;;4826687;29;20030;-75
2020/12/09 11:48:05;;;;;;;18.00;4.95;;;;;;;;;;4826682;29;20412;-76
2020/12/09 11:50:31;;;;;;;12.75;4.10;;;;;;;;;;4826544;29;20082;-75
2020/12/09 11:52:57;;;;;;;8.10;3.97;;;;;;;;;;4826821;29;20037;-75
2020/12/09 11:55:23;;;;;;;10.05;3.45;;;;;;;;;;4826915;29;20061;-76
2020/12/09 11:57:49;;;;;;;11.40;3.60;;;;;;;;;;4826769;29;20038;-76
2020/12/09 12:00:16;;;;;;;9.95;3.05;;;;;;;;;;4842888;29;20036;-75
2020/12/09 12:02:42;;;;;;;11.13;3.22;;;;;;;;;;4843169;29;20034;-75
2020/12/09 12:05:09;;;;;;;5.95;2.58;;;;;;;;;;4826750;29;20116;-75
2020/12/09 12:07:39;;;;;;;6.28;3.15;;;;;;;;;;4826641;29;20118;-76
2020/12/09 12:10:05;;;;;;;10.07;3.85;;;;;;;;;;4842875;29;20086;-75
2020/12/09 12:12:31;;;;;;;10.48;3.50;;;;;;;;;;4826364;29;20038;-76
2020/12/09 12:14:57;;;;;;;6.43;2.58;;;;;;;;;;4826258;29;20034;-76
2020/12/09 12:17:24;;;;;;;5.72;2.58;;;;;;;;;;4842918;29;20132;-75
2020/12/09 12:19:50;;;;;;;5.97;2.80;;;;;;;;;;4842879;29;20503;-76
2020/12/09 12:22:16;;;;;;;7.07;3.80;;;;;;;;;;4826541;29;20127;-76
2020/12/09 12:24:42;;;;;;;8.15;3.10;;;;;;;;;;4826315;29;20058;-76
2020/12/09 12:27:08;;;;;;;5.40;2.72;;;;;;;;;;4842529;29;20030;-77
2020/12/09 12:29:34;;;;;;;8.93;3.10;;;;;;;;;;4811264;29;20159;-75
2020/12/09 12:32:00;;;;;;;5.88;2.38;;;;;;;;;;4842954;29;20037;-76
2020/12/09 12:34:26;;;;;;;6.22;2.83;;;;;;;;;;4826155;29;20057;-77
2020/12/09 12:36:56;;;;;;;5.80;2.80;;;;;;;;;;4813898;29;20125;-76
2020/12/09 12:39:22;;;;;;;6.88;2.70;;;;;;;;;;4808027;29;20089;-75
2020/12/09 12:41:48;;;;;;;4.00;2.22;;;;;;;;;;4807986;29;20037;-76
2020/12/09 12:44:14;;;;;;;8.43;2.80;;;;;;;;;;4807756;29;20034;-75
2020/12/09 12:46:40;;;;;;;10.73;2.97;;;;;;;;;;4807862;29;20446;-76
2020/12/09 12:49:06;;;;;;;5.13;2.63;;;;;;;;;;4804494;29;20047;-75
2020/12/09 12:51:32;;;;;;;6.05;2.90;;;;;;;;;;4804752;29;20038;-75
2020/12/09 12:53:58;;;;;;;7.72;2.95;;;;;;;;;;4804262;29;20034;-74
2020/12/09 12:56:25;;;;;;;7.45;3.20;;;;;;;;;;4806062;29;20035;-76
2020/12/09 12:58:51;;;;;;;5.18;2.78;;;;;;;;;;4805665;29;20043;-76
2020/12/09 13:01:17;;;;;;;6.53;2.92;;;;;;;;;;4804652;29;20087;-77
2020/12/09 13:03:43;;;;;;;5.95;2.90;;;;;;;;;;4804625;29;20426;-75
2020/12/09 13:06:10;;;;;;;8.45;2.72;;;;;;;;;;4805693;29;20023;-76
2020/12/09 13:08:37;;;;;;;7.40;2.90;;;;;;;;;;4801068;29;20489;-75
2020/12/09 13:11:05;;;;;;;6.57;3.05;;;;;;;;;;4805735;29;20473;-75
2020/12/09 13:13:31;;;;;;;8.75;3.65;;;;;;;;;;4804464;29;20046;-74
2020/12/09 13:15:58;;;;;;;8.45;3.28;;;;;;;;;;4804274;29;20035;-76
2020/12/09 13:18:24;;;;;;;6.88;2.63;;;;;;;;;;4804242;29;20038;-75
2020/12/09 13:20:51;;;;;;;7.13;2.90;;;;;;;;;;4804219;29;20035;-76
2020/12/09 13:23:17;;;;;;;7.80;2.67;;;;;;;;;;4804128;29;20027;-77
2020/12/09 13:25:43;;;;;;;9.15;3.17;;;;;;;;;;4804327;29;20134;-76
2020/12/09 13:28:09;;;;;;;5.75;2.75;;;;;;;;;;4804191;29;20070;-75
2020/12/09 13:30:35;;;;;;;6.93;3.10;;;;;;;;;;4803879;29;20381;-75
2020/12/09 13:33:01;;;;;;;8.48;2.58;;;;;;;;;;4804200;29;20031;-77
2020/12/09 13:35:28;;;;;;;7.75;2.95;;;;;;;;;;4804162;29;20031;-74
2020/12/09 13:37:54;;;;;;;6.35;2.67;;;;;;;;;;4803932;29;20078;-76
2020/12/09 13:40:20;;;;;;;6.68;2.72;;;;;;;;;;4803505;29;20035;-76
2020/12/09 13:42:46;;;;;;;7.35;2.97;;;;;;;;;;4805518;29;20443;-76
2020/12/09 13:45:12;;;;;;;8.68;2.75;;;;;;;;;;4803905;29;20038;-75
2020/12/09 13:47:38;;;;;;;6.47;2.33;;;;;;;;;;4811376;29;20053;-77
2020/12/09 13:50:05;;;;;;;6.05;2.08;;;;;;;;;;4826684;29;20042;-78
2020/12/09 13:52:33;;;;;;;7.60;2.22;;;;;;;;;;4810728;29;20037;-79
2020/12/09 13:55:00;;;;;;;5.40;2.40;;;;;;;;;;4810435;29;20042;-76
2020/12/09 13:57:26;;;;;;;6.45;2.60;;;;;;;;;;4810528;29;20038;-78
2020/12/09 13:59:52;;;;;;;6.38;2.67;;;;;;;;;;4826925;29;20532;-79
2020/12/09 14:02:19;;;;;;;5.75;2.70;;;;;;;;;;4810583;29;20411;-77
2020/12/09 14:04:45;;;;;;;5.00;1.67;;;;;;;;;;4810448;29;20030;-78
2020/12/09 14:07:11;;;;;;;5.45;2.20;;;;;;;;;;4826454;29;20113;-79
2020/12/09 14:09:37;;;;;;;5.40;2.30;;;;;;;;;;4810353;29;20396;-77
2020/12/09 14:12:04;;;;;;;4.47;2.35;;;;;;;;;;4810480;29;20030;-77
2020/12/09 14:14:30;;;;;;;7.50;2.42;;;;;;;;;;4810253;29;20062;-78
2020/12/09 14:16:56;;;;;;;6.78;2.55;;;;;;;;;;4810267;29;20041;-78
2020/12/09 14:19:26;;;;;;;6.68;2.90;;;;;;;;;;4810205;29;20403;-78
2020/12/09 14:21:52;;;;;;;7.88;2.60;;;;;;;;;;4810256;29;20541;-78
2020/12/09 14:24:18;;;;;;;7.75;3.13;;;;;;;;;;4810193;29;20038;-78
2020/12/09 14:26:45;;;;;;;5.95;2.20;;;;;;;;;;4810195;29;20052;-80
2020/12/09 14:29:11;;;;;;;9.25;3.00;;;;;;;;;;4810305;29;20033;-80
2020/12/09 14:31:37;;;;;;;6.05;2.67;;;;;;;;;;4809913;29;20034;-77
2020/12/09 14:34:03;;;;;;;5.30;2.28;;;;;;;;;;4826611;29;20468;-79
2020/12/09 14:36:30;;;;;;;8.43;2.75;;;;;;;;;;4826405;29;20034;-81
2020/12/09 14:38:56;;;;;;;5.75;2.22;;;;;;;;;;4809903;29;20042;-80